sensor_id;sensor_type;location;lat;lon;timestamp;pressure;altitude;pressure_sealevel;temperature;humidity
38400;BME280;24180;42.676;23.320;2023-04-23T00:00:01;94714.31;;;8.83;100.00
38400;BME280;24180;42.676;23.320;2023-04-23T00:02:28;94686.19;;;8.61;100.00
38400;BME280;24180;42.676;23.320;2023-04-23T00:04:55;94702.91;;;8.66;100.00
38400;BME280;24180;42.676;23.320;2023-04-23T00:07:21;94706.44;;;8.65;100.00
38400;BME280;24180;42.676;23.320;2023-04-23T00:09:49;94700.72;;;8.62;100.00
38400;BME280;24180;42.676;23.320;2023-04-23T00:12:16;94695.81;;;8.59;100.00
38400;BME280;24180;42.676;23.320;2023-04-23T00:14:42;94682.75;;;8.51;100.00
38400;BME280;24180;42.676;23.320;2023-04-23T00:17:08;94701.81;;;8.69;100.00
38400;BME280;24180;42.676;23.320;2023-04-23T00:19:33;94700.88;;;8.79;100.00
38400;BME280;24180;42.676;23.320;2023-04-23T00:21:58;94716.63;;;8.76;100.00
38400;BME280;24180;42.676;23.320;2023-04-23T00:24:24;94699.34;;;8.58;100.00
38400;BME280;24180;42.676;23.320;2023-04-23T00:26:49;94686.09;;;8.32;100.00
38400;BME280;24180;42.676;23.320;2023-04-23T00:29:17;94714.13;;;8.46;100.00
38400;BME280;24180;42.676;23.320;2023-04-23T00:31:42;94711.13;;;8.41;100.00
38400;BME280;24180;42.676;23.320;2023-04-23T00:34:07;94676.38;;;8.15;100.00
38400;BME280;24180;42.676;23.320;2023-04-23T00:36:33;94703.09;;;8.34;100.00
38400;BME280;24180;42.676;23.320;2023-04-23T00:38:58;94700.91;;;8.39;100.00
38400;BME280;24180;42.676;23.320;2023-04-23T00:41:25;94672.91;;;8.25;100.00
38400;BME280;24180;42.676;23.320;2023-04-23T00:43:53;94696.03;;;8.36;100.00
38400;BME280;24180;42.676;23.320;2023-04-23T00:46:19;94677.50;;;8.22;100.00
38400;BME280;24180;42.676;23.320;2023-04-23T00:48:45;94669.88;;;8.20;100.00
38400;BME280;24180;42.676;23.320;2023-04-23T00:51:11;94678.31;;;8.22;100.00
38400;BME280;24180;42.676;23.320;2023-04-23T00:53:36;94675.88;;;8.21;100.00
38400;BME280;24180;42.676;23.320;2023-04-23T00:56:03;94701.31;;;8.35;100.00
38400;BME280;24180;42.676;23.320;2023-04-23T00:58:31;94666.88;;;8.06;100.00
38400;BME280;24180;42.676;23.320;2023-04-23T01:00:57;94709.94;;;8.24;100.00
38400;BME280;24180;42.676;23.320;2023-04-23T01:03:23;94697.31;;;8.21;100.00
38400;BME280;24180;42.676;23.320;2023-04-23T01:05:49;94699.09;;;8.21;100.00
38400;BME280;24180;42.676;23.320;2023-04-23T01:08:16;94678.28;;;8.13;100.00
38400;BME280;24180;42.676;23.320;2023-04-23T01:10:46;94701.78;;;8.19;100.00
38400;BME280;24180;42.676;23.320;2023-04-23T01:13:15;94711.41;;;8.17;100.00
38400;BME280;24180;42.676;23.320;2023-04-23T01:15:43;94706.53;;;8.14;100.00
38400;BME280;24180;42.676;23.320;2023-04-23T01:18:09;94709.13;;;8.14;100.00
38400;BME280;24180;42.676;23.320;2023-04-23T01:20:36;94677.94;;;7.96;100.00
38400;BME280;24180;42.676;23.320;2023-04-23T01:23:02;94673.06;;;7.93;100.00
38400;BME280;24180;42.676;23.320;2023-04-23T01:25:28;94666.66;;;7.88;100.00
38400;BME280;24180;42.676;23.320;2023-04-23T01:27:54;94703.09;;;8.04;100.00
38400;BME280;24180;42.676;23.320;2023-04-23T01:30:20;94699.69;;;8.04;100.00
38400;BME280;24180;42.676;23.320;2023-04-23T01:32:46;94704.63;;;7.86;100.00
38400;BME280;24180;42.676;23.320;2023-04-23T01:35:12;94711.03;;;7.91;100.00
38400;BME280;24180;42.676;23.320;2023-04-23T01:37:38;94700.88;;;7.90;100.00
38400;BME280;24180;42.676;23.320;2023-04-23T01:40:05;94690.88;;;7.76;100.00
38400;BME280;24180;42.676;23.320;2023-04-23T01:42:32;94682.22;;;7.56;100.00
38400;BME280;24180;42.676;23.320;2023-04-23T01:44:58;94689.19;;;7.65;100.00
38400;BME280;24180;42.676;23.320;2023-04-23T01:47:23;94716.38;;;7.79;100.00
38400;BME280;24180;42.676;23.320;2023-04-23T01:49:49;94691.63;;;7.67;100.00
38400;BME280;24180;42.676;23.320;2023-04-23T01:52:14;94698.97;;;7.71;100.00
38400;BME280;24180;42.676;23.320;2023-04-23T01:54:40;94707.41;;;7.73;100.00
38400;BME280;24180;42.676;23.320;2023-04-23T01:57:05;94708.44;;;7.61;100.00
38400;BME280;24180;42.676;23.320;2023-04-23T01:59:31;94716.72;;;7.65;100.00
38400;BME280;24180;42.676;23.320;2023-04-23T02:01:56;94712.50;;;7.64;100.00
38400;BME280;24180;42.676;23.320;2023-04-23T02:04:21;94699.13;;;7.49;100.00
38400;BME280;24180;42.676;23.320;2023-04-23T02:06:49;94682.50;;;7.32;100.00
38400;BME280;24180;42.676;23.320;2023-04-23T02:09:15;94693.91;;;7.39;100.00
38400;BME280;24180;42.676;23.320;2023-04-23T02:11:41;94682.50;;;7.32;100.00
38400;BME280;24180;42.676;23.320;2023-04-23T02:14:07;94684.06;;;7.24;100.00
38400;BME280;24180;42.676;23.320;2023-04-23T02:16:33;94722.69;;;7.44;100.00
38400;BME280;24180;42.676;23.320;2023-04-23T02:18:59;94660.78;;;7.14;100.00
38400;BME280;24180;42.676;23.320;2023-04-23T02:21:26;94709.88;;;7.33;100.00
38400;BME280;24180;42.676;23.320;2023-04-23T02:23:52;94700.88;;;7.28;100.00
38400;BME280;24180;42.676;23.320;2023-04-23T02:26:17;94709.06;;;7.33;100.00
38400;BME280;24180;42.676;23.320;2023-04-23T02:28:44;94707.53;;;7.30;100.00
38400;BME280;24180;42.676;23.320;2023-04-23T02:31:10;94688.91;;;7.17;100.00
38400;BME280;24180;42.676;23.320;2023-04-23T02:33:35;94684.41;;;7.19;100.00
38400;BME280;24180;42.676;23.320;2023-04-23T02:36:01;94685.94;;;7.22;100.00
38400;BME280;24180;42.676;23.320;2023-04-23T02:38:26;94691.59;;;7.16;100.00
38400;BME280;24180;42.676;23.320;2023-04-23T02:40:51;94693.59;;;7.12;100.00
38400;BME280;24180;42.676;23.320;2023-04-23T02:43:17;94686.69;;;7.13;100.00
38400;BME280;24180;42.676;23.320;2023-04-23T02:45:42;94715.53;;;7.27;100.00
38400;BME280;24180;42.676;23.320;2023-04-23T02:48:09;94707.03;;;7.16;100.00
38400;BME280;24180;42.676;23.320;2023-04-23T02:50:35;94714.56;;;7.07;100.00
38400;BME280;24180;42.676;23.320;2023-04-23T02:53:03;94683.41;;;6.90;100.00
38400;BME280;24180;42.676;23.320;2023-04-23T02:55:29;94708.59;;;7.07;100.00
38400;BME280;24180;42.676;23.320;2023-04-23T02:57:56;94701.16;;;6.93;100.00
38400;BME280;24180;42.676;23.320;2023-04-23T03:00:23;94723.66;;;7.12;100.00
38400;BME280;24180;42.676;23.320;2023-04-23T03:02:48;94691.69;;;6.93;100.00
38400;BME280;24180;42.676;23.320;2023-04-23T03:05:14;94716.88;;;7.11;100.00
38400;BME280;24180;42.676;23.320;2023-04-23T03:07:40;94722.03;;;7.11;100.00
38400;BME280;24180;42.676;23.320;2023-04-23T03:10:05;94718.06;;;7.06;100.00
38400;BME280;24180;42.676;23.320;2023-04-23T03:12:32;94722.03;;;7.11;100.00
38400;BME280;24180;42.676;23.320;2023-04-23T03:14:57;94722.72;;;7.13;100.00
38400;BME280;24180;42.676;23.320;2023-04-23T03:17:23;94726.81;;;7.15;100.00
38400;BME280;24180;42.676;23.320;2023-04-23T03:19:48;94697.16;;;7.00;100.00
38400;BME280;24180;42.676;23.320;2023-04-23T03:22:14;94705.13;;;6.97;100.00
38400;BME280;24180;42.676;23.320;2023-04-23T03:24:39;94727.56;;;7.06;100.00
38400;BME280;24180;42.676;23.320;2023-04-23T03:27:05;94706.06;;;6.96;100.00
38400;BME280;24180;42.676;23.320;2023-04-23T03:29:30;94727.22;;;6.99;100.00
38400;BME280;24180;42.676;23.320;2023-04-23T03:31:56;94721.97;;;7.01;100.00
38400;BME280;24180;42.676;23.320;2023-04-23T03:34:21;94698.84;;;6.79;100.00
38400;BME280;24180;42.676;23.320;2023-04-23T03:36:46;94739.47;;;7.07;100.00
38400;BME280;24180;42.676;23.320;2023-04-23T03:39:13;94687.75;;;6.78;100.00
38400;BME280;24180;42.676;23.320;2023-04-23T03:41:39;94728.25;;;7.08;100.00
38400;BME280;24180;42.676;23.320;2023-04-23T03:44:04;94739.56;;;7.17;100.00
38400;BME280;24180;42.676;23.320;2023-04-23T03:46:30;94703.75;;;6.93;100.00
38400;BME280;24180;42.676;23.320;2023-04-23T03:48:55;94737.81;;;7.17;100.00
38400;BME280;24180;42.676;23.320;2023-04-23T03:51:21;94703.13;;;7.00;100.00
38400;BME280;24180;42.676;23.320;2023-04-23T03:53:46;94712.13;;;7.06;100.00
38400;BME280;24180;42.676;23.320;2023-04-23T03:56:11;94735.91;;;7.19;100.00
38400;BME280;24180;42.676;23.320;2023-04-23T03:58:37;94711.88;;;7.09;100.00
38400;BME280;24180;42.676;23.320;2023-04-23T04:01:02;94745.41;;;7.19;100.00
38400;BME280;24180;42.676;23.320;2023-04-23T04:03:28;94756.72;;;7.27;100.00
38400;BME280;24180;42.676;23.320;2023-04-23T04:05:53;94700.47;;;6.91;100.00
38400;BME280;24180;42.676;23.320;2023-04-23T04:08:19;94717.69;;;7.11;100.00
38400;BME280;24180;42.676;23.320;2023-04-23T04:10:44;94728.56;;;7.15;100.00
38400;BME280;24180;42.676;23.320;2023-04-23T04:13:10;94736.28;;;7.15;100.00
38400;BME280;24180;42.676;23.320;2023-04-23T04:15:35;94738.75;;;7.16;100.00
38400;BME280;24180;42.676;23.320;2023-04-23T04:18:01;94756.97;;;7.24;100.00
38400;BME280;24180;42.676;23.320;2023-04-23T04:20:26;94730.25;;;7.04;100.00
38400;BME280;24180;42.676;23.320;2023-04-23T04:22:54;94757.44;;;7.18;100.00
38400;BME280;24180;42.676;23.320;2023-04-23T04:25:20;94748.53;;;7.22;100.00
38400;BME280;24180;42.676;23.320;2023-04-23T04:27:49;94766.16;;;7.17;100.00
38400;BME280;24180;42.676;23.320;2023-04-23T04:30:15;94761.00;;;7.17;100.00
38400;BME280;24180;42.676;23.320;2023-04-23T04:32:40;94751.50;;;7.18;100.00
38400;BME280;24180;42.676;23.320;2023-04-23T04:35:07;94734.91;;;7.11;100.00
38400;BME280;24180;42.676;23.320;2023-04-23T04:37:34;94734.78;;;7.12;100.00
38400;BME280;24180;42.676;23.320;2023-04-23T04:39:59;94705.69;;;7.00;100.00
38400;BME280;24180;42.676;23.320;2023-04-23T04:42:26;94775.56;;;7.28;100.00
38400;BME280;24180;42.676;23.320;2023-04-23T04:44:51;94768.97;;;7.35;100.00
38400;BME280;24180;42.676;23.320;2023-04-23T04:47:17;94767.22;;;7.35;100.00
38400;BME280;24180;42.676;23.320;2023-04-23T04:49:43;94736.06;;;7.18;100.00
38400;BME280;24180;42.676;23.320;2023-04-23T04:52:09;94761.44;;;7.43;100.00
38400;BME280;24180;42.676;23.320;2023-04-23T04:54:34;94752.59;;;7.36;100.00
38400;BME280;24180;42.676;23.320;2023-04-23T04:57:00;94787.59;;;7.59;100.00
38400;BME280;24180;42.676;23.320;2023-04-23T04:59:26;94786.00;;;7.58;100.00
38400;BME280;24180;42.676;23.320;2023-04-23T05:01:52;94781.06;;;7.55;100.00
38400;BME280;24180;42.676;23.320;2023-04-23T05:04:17;94755.00;;;7.48;100.00
38400;BME280;24180;42.676;23.320;2023-04-23T05:06:43;94766.78;;;7.62;100.00
38400;BME280;24180;42.676;23.320;2023-04-23T05:09:08;94788.56;;;7.79;100.00
38400;BME280;24180;42.676;23.320;2023-04-23T05:11:34;94748.28;;;7.57;100.00
38400;BME280;24180;42.676;23.320;2023-04-23T05:14:00;94789.44;;;7.89;100.00
38400;BME280;24180;42.676;23.320;2023-04-23T05:16:25;94760.09;;;7.80;100.00
38400;BME280;24180;42.676;23.320;2023-04-23T05:18:51;94763.41;;;7.92;100.00
38400;BME280;24180;42.676;23.320;2023-04-23T05:21:16;94794.34;;;8.13;100.00
38400;BME280;24180;42.676;23.320;2023-04-23T05:23:43;94769.63;;;8.10;100.00
38400;BME280;24180;42.676;23.320;2023-04-23T05:26:08;94776.56;;;8.19;100.00
38400;BME280;24180;42.676;23.320;2023-04-23T05:28:35;94793.97;;;8.27;100.00
38400;BME280;24180;42.676;23.320;2023-04-23T05:31:00;94762.84;;;8.19;100.00
38400;BME280;24180;42.676;23.320;2023-04-23T05:33:26;94765.31;;;8.20;100.00
38400;BME280;24180;42.676;23.320;2023-04-23T05:35:52;94777.09;;;8.34;100.00
38400;BME280;24180;42.676;23.320;2023-04-23T05:38:18;94775.38;;;8.44;100.00
38400;BME280;24180;42.676;23.320;2023-04-23T05:40:44;94797.59;;;8.66;100.00
38400;BME280;24180;42.676;23.320;2023-04-23T05:43:10;94795.00;;;8.66;100.00
38400;BME280;24180;42.676;23.320;2023-04-23T05:45:35;94769.72;;;8.60;100.00
38400;BME280;24180;42.676;23.320;2023-04-23T05:48:01;94772.19;;;8.61;100.00
38400;BME280;24180;42.676;23.320;2023-04-23T05:50:26;94780.78;;;8.81;100.00
38400;BME280;24180;42.676;23.320;2023-04-23T05:52:52;94815.34;;;8.99;100.00
38400;BME280;24180;42.676;23.320;2023-04-23T05:55:18;94776.88;;;8.86;100.00
38400;BME280;24180;42.676;23.320;2023-04-23T05:57:45;94783.69;;;8.97;100.00
38400;BME280;24180;42.676;23.320;2023-04-23T06:00:11;94780.16;;;8.98;100.00
38400;BME280;24180;42.676;23.320;2023-04-23T06:02:37;94812.50;;;9.12;100.00
38400;BME280;24180;42.676;23.320;2023-04-23T06:05:03;94805.84;;;9.09;100.00
38400;BME280;24180;42.676;23.320;2023-04-23T06:07:30;94788.06;;;9.06;100.00
38400;BME280;24180;42.676;23.320;2023-04-23T06:09:55;94807.38;;;9.40;100.00
38400;BME280;24180;42.676;23.320;2023-04-23T06:12:21;94807.81;;;9.46;100.00
38400;BME280;24180;42.676;23.320;2023-04-23T06:14:46;94784.69;;;9.34;100.00
38400;BME280;24180;42.676;23.320;2023-04-23T06:17:12;94779.66;;;9.43;100.00
38400;BME280;24180;42.676;23.320;2023-04-23T06:19:37;94804.41;;;9.55;100.00
38400;BME280;24180;42.676;23.320;2023-04-23T06:22:02;94786.56;;;9.52;100.00
38400;BME280;24180;42.676;23.320;2023-04-23T06:24:28;94773.66;;;9.61;100.00
38400;BME280;24180;42.676;23.320;2023-04-23T06:26:54;94780.72;;;9.69;100.00
38400;BME280;24180;42.676;23.320;2023-04-23T06:29:20;94807.50;;;9.87;100.00
38400;BME280;24180;42.676;23.320;2023-04-23T06:31:45;94792.97;;;9.86;100.00
38400;BME280;24180;42.676;23.320;2023-04-23T06:34:11;94777.69;;;9.83;100.00
38400;BME280;24180;42.676;23.320;2023-04-23T06:36:36;94789.16;;;9.90;100.00
38400;BME280;24180;42.676;23.320;2023-04-23T06:39:02;94804.91;;;10.06;100.00
38400;BME280;24180;42.676;23.320;2023-04-23T06:41:27;94805.44;;;10.19;100.00
38400;BME280;24180;42.676;23.320;2023-04-23T06:43:53;94777.78;;;10.20;100.00
38400;BME280;24180;42.676;23.320;2023-04-23T06:46:18;94811.59;;;10.55;100.00
38400;BME280;24180;42.676;23.320;2023-04-23T06:48:43;94783.50;;;10.33;100.00
38400;BME280;24180;42.676;23.320;2023-04-23T06:51:09;94805.44;;;10.66;100.00
38400;BME280;24180;42.676;23.320;2023-04-23T06:53:35;94779.16;;;10.61;100.00
38400;BME280;24180;42.676;23.320;2023-04-23T06:56:00;94792.78;;;10.90;100.00
38400;BME280;24180;42.676;23.320;2023-04-23T06:58:26;94780.13;;;10.87;100.00
38400;BME280;24180;42.676;23.320;2023-04-23T07:00:56;94805.84;;;11.16;100.00
38400;BME280;24180;42.676;23.320;2023-04-23T07:03:27;94803.81;;;11.37;100.00
38400;BME280;24180;42.676;23.320;2023-04-23T07:05:53;94786.56;;;11.46;100.00
38400;BME280;24180;42.676;23.320;2023-04-23T07:08:18;94784.13;;;11.62;100.00
38400;BME280;24180;42.676;23.320;2023-04-23T07:10:45;94782.91;;;11.92;100.00
38400;BME280;24180;42.676;23.320;2023-04-23T07:13:11;94801.13;;;12.17;100.00
38400;BME280;24180;42.676;23.320;2023-04-23T07:15:36;94789.22;;;12.58;100.00
38400;BME280;24180;42.676;23.320;2023-04-23T07:18:02;94780.25;;;12.87;100.00
38400;BME280;24180;42.676;23.320;2023-04-23T07:20:27;94790.22;;;13.07;100.00
38400;BME280;24180;42.676;23.320;2023-04-23T07:22:53;94806.69;;;13.16;100.00
38400;BME280;24180;42.676;23.320;2023-04-23T07:25:18;94762.06;;;12.87;100.00
38400;BME280;24180;42.676;23.320;2023-04-23T07:27:45;94803.66;;;12.95;100.00
38400;BME280;24180;42.676;23.320;2023-04-23T07:30:11;94770.19;;;12.92;100.00
38400;BME280;24180;42.676;23.320;2023-04-23T07:32:36;94801.09;;;13.03;100.00
38400;BME280;24180;42.676;23.320;2023-04-23T07:35:02;94801.34;;;13.26;100.00
38400;BME280;24180;42.676;23.320;2023-04-23T07:37:29;94802.06;;;13.36;100.00
38400;BME280;24180;42.676;23.320;2023-04-23T07:39:54;94782.34;;;13.33;100.00
38400;BME280;24180;42.676;23.320;2023-04-23T07:42:20;94774.19;;;13.20;100.00
38400;BME280;24180;42.676;23.320;2023-04-23T07:44:45;94779.59;;;13.27;100.00
38400;BME280;24180;42.676;23.320;2023-04-23T07:47:10;94801.88;;;13.37;100.00
38400;BME280;24180;42.676;23.320;2023-04-23T07:49:36;94803.84;;;13.43;100.00
38400;BME280;24180;42.676;23.320;2023-04-23T07:52:01;94770.69;;;13.45;100.00
38400;BME280;24180;42.676;23.320;2023-04-23T07:54:26;94782.88;;;13.61;100.00
38400;BME280;24180;42.676;23.320;2023-04-23T07:56:52;94806.94;;;13.47;100.00
38400;BME280;24180;42.676;23.320;2023-04-23T07:59:17;94794.28;;;13.68;100.00
38400;BME280;24180;42.676;23.320;2023-04-23T08:01:43;94801.78;;;13.87;100.00
38400;BME280;24180;42.676;23.320;2023-04-23T08:04:08;94791.19;;;14.37;100.00
38400;BME280;24180;42.676;23.320;2023-04-23T08:06:33;94802.69;;;14.75;100.00
38400;BME280;24180;42.676;23.320;2023-04-23T08:09:00;94792.41;;;15.13;100.00
38400;BME280;24180;42.676;23.320;2023-04-23T08:11:30;94775.31;;;15.41;100.00
38400;BME280;24180;42.676;23.320;2023-04-23T08:13:56;94761.69;;;15.62;100.00
38400;BME280;24180;42.676;23.320;2023-04-23T08:16:21;94791.44;;;15.98;100.00
38400;BME280;24180;42.676;23.320;2023-04-23T08:18:46;94787.06;;;15.76;100.00
38400;BME280;24180;42.676;23.320;2023-04-23T08:21:12;94796.78;;;15.59;100.00
38400;BME280;24180;42.676;23.320;2023-04-23T08:23:38;94762.03;;;15.59;100.00
38400;BME280;24180;42.676;23.320;2023-04-23T08:26:03;94787.72;;;15.70;100.00
38400;BME280;24180;42.676;23.320;2023-04-23T08:28:28;94781.06;;;15.90;100.00
38400;BME280;24180;42.676;23.320;2023-04-23T08:30:55;94781.59;;;16.23;100.00
38400;BME280;24180;42.676;23.320;2023-04-23T08:33:20;94788.94;;;16.42;100.00
38400;BME280;24180;42.676;23.320;2023-04-23T08:35:46;94783.09;;;16.55;100.00
38400;BME280;24180;42.676;23.320;2023-04-23T08:38:11;94776.53;;;16.73;100.00
38400;BME280;24180;42.676;23.320;2023-04-23T08:40:37;94757.31;;;16.52;100.00
38400;BME280;24180;42.676;23.320;2023-04-23T08:43:14;94784.59;;;16.49;100.00
38400;BME280;24180;42.676;23.320;2023-04-23T08:45:41;94772.34;;;16.50;100.00
38400;BME280;24180;42.676;23.320;2023-04-23T08:48:09;94734.19;;;16.11;100.00
38400;BME280;24180;42.676;23.320;2023-04-23T08:50:37;94765.31;;;16.50;100.00
38400;BME280;24180;42.676;23.320;2023-04-23T08:53:03;94749.13;;;16.69;100.00
38400;BME280;24180;42.676;23.320;2023-04-23T08:55:33;94765.00;;;16.82;99.96
38400;BME280;24180;42.676;23.320;2023-04-23T08:57:58;94760.63;;;17.19;99.28
38400;BME280;24180;42.676;23.320;2023-04-23T09:00:25;94754.59;;;17.54;97.74
38400;BME280;24180;42.676;23.320;2023-04-23T09:02:51;94738.06;;;17.68;96.05
38400;BME280;24180;42.676;23.320;2023-04-23T09:05:17;94732.31;;;17.80;94.12
38400;BME280;24180;42.676;23.320;2023-04-23T09:07:42;94761.44;;;18.19;94.38
38400;BME280;24180;42.676;23.320;2023-04-23T09:10:10;94734.19;;;17.64;93.85
38400;BME280;24180;42.676;23.320;2023-04-23T09:12:38;94750.25;;;17.61;95.02
38400;BME280;24180;42.676;23.320;2023-04-23T09:15:05;94727.47;;;17.41;94.10
38400;BME280;24180;42.676;23.320;2023-04-23T09:17:38;94742.03;;;17.28;96.80
38400;BME280;24180;42.676;23.320;2023-04-23T09:20:05;94720.41;;;17.20;96.03
38400;BME280;24180;42.676;23.320;2023-04-23T09:22:45;94751.38;;;17.38;96.49
38400;BME280;24180;42.676;23.320;2023-04-23T09:25:13;94753.16;;;17.01;94.20
38400;BME280;24180;42.676;23.320;2023-04-23T09:27:39;94725.59;;;16.84;95.46
38400;BME280;24180;42.676;23.320;2023-04-23T09:30:07;94744.94;;;17.19;96.38
38400;BME280;24180;42.676;23.320;2023-04-23T09:32:34;94721.09;;;16.78;95.81
38400;BME280;24180;42.676;23.320;2023-04-23T09:35:05;94707.63;;;17.31;93.90
38400;BME280;24180;42.676;23.320;2023-04-23T09:37:32;94719.28;;;17.65;91.06
38400;BME280;24180;42.676;23.320;2023-04-23T09:40:02;94703.59;;;17.50;89.55
38400;BME280;24180;42.676;23.320;2023-04-23T09:42:33;94726.50;;;17.27;91.25
38400;BME280;24180;42.676;23.320;2023-04-23T09:45:06;94731.53;;;17.07;94.25
38400;BME280;24180;42.676;23.320;2023-04-23T09:47:33;94729.66;;;16.87;96.92
38400;BME280;24180;42.676;23.320;2023-04-23T09:49:59;94710.06;;;16.97;94.94
38400;BME280;24180;42.676;23.320;2023-04-23T09:52:25;94688.56;;;16.80;93.86
38400;BME280;24180;42.676;23.320;2023-04-23T09:54:51;94716.00;;;17.06;94.41
38400;BME280;24180;42.676;23.320;2023-04-23T09:57:16;94679.91;;;17.37;91.26
38400;BME280;24180;42.676;23.320;2023-04-23T09:59:42;94705.28;;;18.00;86.76
38400;BME280;24180;42.676;23.320;2023-04-23T10:02:09;94710.81;;;18.74;78.60
38400;BME280;24180;42.676;23.320;2023-04-23T10:04:36;94702.34;;;19.26;72.77
38400;BME280;24180;42.676;23.320;2023-04-23T10:07:03;94676.31;;;19.31;70.17
38400;BME280;24180;42.676;23.320;2023-04-23T10:09:31;94678.22;;;18.96;70.67
38400;BME280;24180;42.676;23.320;2023-04-23T10:11:58;94689.56;;;18.62;75.70
38400;BME280;24180;42.676;23.320;2023-04-23T10:14:25;94670.06;;;18.78;76.38
38400;BME280;24180;42.676;23.320;2023-04-23T10:16:55;94686.56;;;18.65;75.75
38400;BME280;24180;42.676;23.320;2023-04-23T10:19:22;94663.00;;;19.33;71.87
38400;BME280;24180;42.676;23.320;2023-04-23T10:22:03;94684.88;;;19.59;66.48
38400;BME280;24180;42.676;23.320;2023-04-23T10:24:36;94678.25;;;20.29;63.98
38400;BME280;24180;42.676;23.320;2023-04-23T10:27:04;94662.69;;;24.16;46.09
38400;BME280;24180;42.676;23.320;2023-04-23T10:29:33;94625.47;;;24.69;40.41
38400;BME280;24180;42.676;23.320;2023-04-23T10:32:04;94637.44;;;25.96;37.35
38400;BME280;24180;42.676;23.320;2023-04-23T10:34:33;94648.31;;;27.05;35.38
38400;BME280;24180;42.676;23.320;2023-04-23T10:37:00;94637.28;;;28.25;32.80
38400;BME280;24180;42.676;23.320;2023-04-23T10:39:27;94650.41;;;28.37;32.93
38400;BME280;24180;42.676;23.320;2023-04-23T10:41:54;94632.84;;;29.45;30.60
38400;BME280;24180;42.676;23.320;2023-04-23T10:44:21;94637.16;;;30.78;29.41
38400;BME280;24180;42.676;23.320;2023-04-23T10:46:51;94636.19;;;31.82;27.89
38400;BME280;24180;42.676;23.320;2023-04-23T10:49:17;94633.94;;;31.01;27.84
38400;BME280;24180;42.676;23.320;2023-04-23T10:51:46;94634.72;;;28.04;31.53
38400;BME280;24180;42.676;23.320;2023-04-23T10:54:16;94619.16;;;24.00;35.54
38400;BME280;24180;42.676;23.320;2023-04-23T10:56:43;94639.56;;;22.80;38.92
38400;BME280;24180;42.676;23.320;2023-04-23T10:59:19;94605.16;;;22.32;39.16
38400;BME280;24180;42.676;23.320;2023-04-23T11:02:04;94617.09;;;24.49;35.35
38400;BME280;24180;42.676;23.320;2023-04-23T11:04:32;94609.06;;;27.92;31.65
38400;BME280;24180;42.676;23.320;2023-04-23T11:07:11;94593.78;;;30.96;27.86
38400;BME280;24180;42.676;23.320;2023-04-23T11:12:09;94606.41;;;34.53;23.66
38400;BME280;24180;42.676;23.320;2023-04-23T11:14:41;94604.19;;;33.72;22.57
38400;BME280;24180;42.676;23.320;2023-04-23T11:17:10;94580.75;;;34.28;21.66
38400;BME280;24180;42.676;23.320;2023-04-23T11:19:40;94590.34;;;34.48;21.51
38400;BME280;24180;42.676;23.320;2023-04-23T11:22:12;94592.50;;;34.65;20.99
38400;BME280;24180;42.676;23.320;2023-04-23T11:24:39;94589.56;;;35.43;21.02
38400;BME280;24180;42.676;23.320;2023-04-23T11:27:15;94588.97;;;37.11;20.02
38400;BME280;24180;42.676;23.320;2023-04-23T11:29:43;94587.72;;;35.16;20.75
38400;BME280;24180;42.676;23.320;2023-04-23T11:32:11;94580.53;;;35.61;20.17
38400;BME280;24180;42.676;23.320;2023-04-23T11:34:44;94584.84;;;35.98;20.22
38400;BME280;24180;42.676;23.320;2023-04-23T11:37:10;94582.84;;;36.96;19.41
38400;BME280;24180;42.676;23.320;2023-04-23T11:39:36;94563.59;;;37.46;18.82
38400;BME280;24180;42.676;23.320;2023-04-23T11:42:02;94562.63;;;37.25;18.20
38400;BME280;24180;42.676;23.320;2023-04-23T11:44:29;94576.84;;;38.08;18.38
38400;BME280;24180;42.676;23.320;2023-04-23T11:46:59;94544.84;;;38.73;17.86
38400;BME280;24180;42.676;23.320;2023-04-23T11:49:25;94562.97;;;39.90;17.74
38400;BME280;24180;42.676;23.320;2023-04-23T11:51:50;94557.19;;;39.21;17.34
38400;BME280;24180;42.676;23.320;2023-04-23T11:54:16;94547.34;;;39.66;17.29
38400;BME280;24180;42.676;23.320;2023-04-23T11:56:42;94548.00;;;37.26;18.28
38400;BME280;24180;42.676;23.320;2023-04-23T11:59:08;94541.94;;;38.40;18.27
38400;BME280;24180;42.676;23.320;2023-04-23T12:01:40;94565.72;;;38.64;17.34
38400;BME280;24180;42.676;23.320;2023-04-23T12:04:18;94541.97;;;36.41;18.54
38400;BME280;24180;42.676;23.320;2023-04-23T12:06:45;94550.03;;;35.52;19.11
38400;BME280;24180;42.676;23.320;2023-04-23T12:09:12;94546.75;;;33.12;20.42
38400;BME280;24180;42.676;23.320;2023-04-23T12:11:39;94527.69;;;31.89;21.11
38400;BME280;24180;42.676;23.320;2023-04-23T12:14:05;94548.00;;;32.24;21.14
38400;BME280;24180;42.676;23.320;2023-04-23T12:16:43;94552.00;;;33.59;19.97
38400;BME280;24180;42.676;23.320;2023-04-23T12:19:16;94530.53;;;34.70;19.04
38400;BME280;24180;42.676;23.320;2023-04-23T12:22:02;94519.97;;;35.37;18.64
38400;BME280;24180;42.676;23.320;2023-04-23T12:24:45;94545.75;;;32.84;19.71
38400;BME280;24180;42.676;23.320;2023-04-23T12:27:17;94517.09;;;29.87;21.70
38400;BME280;24180;42.676;23.320;2023-04-23T12:29:44;94517.31;;;27.36;24.12
38400;BME280;24180;42.676;23.320;2023-04-23T12:32:12;94535.28;;;26.54;26.38
38400;BME280;24180;42.676;23.320;2023-04-23T12:34:54;94529.88;;;26.44;26.64
38400;BME280;24180;42.676;23.320;2023-04-23T12:37:24;94520.59;;;25.25;26.73
38400;BME280;24180;42.676;23.320;2023-04-23T12:39:50;94518.19;;;24.66;27.53
38400;BME280;24180;42.676;23.320;2023-04-23T12:42:17;94547.63;;;24.42;28.36
38400;BME280;24180;42.676;23.320;2023-04-23T12:44:43;94532.69;;;23.77;29.05
38400;BME280;24180;42.676;23.320;2023-04-23T12:47:09;94534.31;;;23.14;30.03